createdAt,value
2018-03-04T00:02:02.190Z,14.93
2018-03-04T00:07:05.864Z,13.97
2018-03-04T00:12:09.114Z,13.60
2018-03-04T00:17:12.347Z,13.17
2018-03-04T00:22:15.558Z,15.70
2018-03-04T00:27:18.764Z,15.97
2018-03-04T00:32:21.976Z,16.73
2018-03-04T00:37:25.195Z,14.30
2018-03-04T00:42:28.807Z,13.30
2018-03-04T00:47:32.850Z,15.17
2018-03-04T00:52:36.340Z,16.10
2018-03-04T00:57:40.052Z,15.20
2018-03-04T01:02:43.305Z,15.77
2018-03-04T01:07:46.548Z,13.53
2018-03-04T01:12:50.928Z,16.07
2018-03-04T01:17:54.282Z,14.07
2018-03-04T01:22:57.515Z,15.30
2018-03-04T01:28:01.047Z,15.57
2018-03-04T01:33:04.277Z,16.27
2018-03-04T01:38:07.597Z,19.57
2018-03-04T01:43:11.239Z,18.20
2018-03-04T01:48:14.504Z,18.17
2018-03-04T01:53:17.844Z,18.87
2018-03-04T01:58:21.061Z,20.13
2018-03-04T02:03:24.375Z,21.23
2018-03-04T02:08:27.625Z,20.37
2018-03-04T02:13:32.266Z,19.67
2018-03-04T02:18:35.971Z,22.87
2018-03-04T02:23:39.289Z,23.43
2018-03-04T02:28:42.884Z,21.50
2018-03-04T02:33:46.105Z,21.27
2018-03-04T02:38:49.831Z,23.57
2018-03-04T02:43:53.065Z,27.70
2018-03-04T02:48:56.287Z,29.97
2018-03-04T02:53:59.509Z,25.07
2018-03-04T02:59:02.837Z,28.20
2018-03-04T03:04:06.546Z,28.60
2018-03-04T03:09:09.770Z,25.00
2018-03-04T03:14:13.376Z,22.33
2018-03-04T03:19:16.991Z,22.33
2018-03-04T03:24:20.633Z,23.10
2018-03-04T03:29:23.901Z,24.80
2018-03-04T03:34:27.612Z,22.43
2018-03-04T03:39:31.374Z,21.63
2018-03-04T03:44:34.621Z,21.17
2018-03-04T03:49:37.834Z,21.77
2018-03-04T03:54:41.357Z,20.20
2018-03-04T03:59:44.630Z,16.73
2018-03-04T04:04:47.865Z,15.57
2018-03-04T04:09:51.174Z,16.03
2018-03-04T04:14:54.887Z,15.67
2018-03-04T04:19:58.105Z,16.73
2018-03-04T04:25:01.745Z,14.50
2018-03-04T04:30:05.014Z,16.23
2018-03-04T04:35:08.253Z,15.23
2018-03-04T04:40:11.459Z,14.87
2018-03-04T04:45:14.730Z,16.07
2018-03-04T04:50:18.142Z,16.23
2018-03-04T04:55:21.457Z,15.03
2018-03-04T05:00:25.090Z,15.43
2018-03-04T05:05:28.295Z,17.97
2018-03-04T05:10:31.526Z,16.77
2018-03-04T05:15:34.744Z,16.90
2018-03-04T05:20:38.043Z,14.77
2018-03-04T05:25:41.258Z,15.83
2018-03-04T05:30:44.495Z,13.97
2018-03-04T05:35:48.125Z,13.50
2018-03-04T05:40:51.737Z,14.23
2018-03-04T05:45:56.056Z,14.10
2018-03-04T05:50:59.341Z,14.20
2018-03-04T05:56:02.569Z,12.97
2018-03-04T06:01:05.840Z,11.80
2018-03-04T06:06:09.067Z,14.23
2018-03-04T06:11:12.305Z,13.87
2018-03-04T06:16:15.931Z,13.70
2018-03-04T06:21:19.384Z,20.73
2018-03-04T06:26:22.617Z,14.90
2018-03-04T06:31:25.847Z,11.33
2018-03-04T06:36:29.519Z,11.50
2018-03-04T06:41:32.772Z,11.80
2018-03-04T06:46:36.164Z,11.07
2018-03-04T06:51:39.973Z,11.03
2018-03-04T06:56:43.209Z,10.73
2018-03-04T07:01:46.440Z,11.63
2018-03-04T07:06:49.769Z,12.10
2018-03-04T07:11:53.188Z,11.80
2018-03-04T07:16:56.500Z,11.27
2018-03-04T07:21:59.731Z,14.10
2018-03-04T07:27:03.406Z,14.27
2018-03-04T07:32:06.624Z,13.00
2018-03-04T07:37:09.942Z,13.53
2018-03-04T07:42:13.157Z,12.40
2018-03-04T07:47:16.784Z,12.90
2018-03-04T07:52:20.009Z,12.60
2018-03-04T07:57:23.272Z,13.60
2018-03-04T08:02:27.065Z,12.30
2018-03-04T08:07:30.275Z,11.13
2018-03-04T08:12:33.482Z,10.00
2018-03-04T08:17:36.703Z,9.47
2018-03-04T08:22:39.909Z,8.83
2018-03-04T08:27:54.996Z,9.17
2018-03-04T08:32:58.196Z,7.00
2018-03-04T08:38:01.519Z,10.17
2018-03-04T08:43:05.148Z,10.50
2018-03-04T08:48:08.432Z,8.60
2018-03-04T08:53:12.047Z,8.67
2018-03-04T08:58:15.751Z,7.30
2018-03-04T09:03:19.058Z,7.90
2018-03-04T09:08:22.264Z,9.20
2018-03-04T09:13:25.471Z,7.80
2018-03-04T09:18:29.080Z,8.50
2018-03-04T09:23:32.693Z,8.80
2018-03-04T09:28:35.964Z,11.57
2018-03-04T09:33:39.176Z,11.77
2018-03-04T09:38:42.387Z,11.43
2018-03-04T09:43:45.588Z,11.20
2018-03-04T09:48:49.821Z,12.83
2018-03-04T09:53:53.071Z,12.10
2018-03-04T09:58:56.699Z,12.80
2018-03-04T10:03:59.930Z,13.30
2018-03-04T10:09:03.149Z,13.40
2018-03-04T10:14:06.488Z,13.50
2018-03-04T10:19:10.087Z,13.93
2018-03-04T10:24:13.729Z,13.83
2018-03-04T10:29:16.948Z,13.53
2018-03-04T10:34:20.165Z,11.90
2018-03-04T10:39:23.382Z,12.50
2018-03-04T10:44:26.642Z,10.97
2018-03-04T10:49:30.001Z,11.40
2018-03-04T10:54:33.352Z,12.50
2018-03-04T10:59:37.635Z,12.03
2018-03-04T11:04:41.066Z,10.90
2018-03-04T11:09:44.856Z,11.03
2018-03-04T11:14:48.190Z,8.70
2018-03-04T11:19:51.404Z,8.60
2018-03-04T11:24:55.054Z,6.90
2018-03-04T11:29:58.290Z,5.68
2018-03-04T11:35:01.629Z,5.43
2018-03-04T11:40:04.929Z,4.12
2018-03-04T11:45:08.186Z,2.85
2018-03-04T11:50:11.409Z,2.70
2018-03-04T11:55:14.744Z,2.00
2018-03-04T12:00:18.020Z,2.53
2018-03-04T12:05:21.247Z,2.50
2018-03-04T12:10:24.468Z,2.90
2018-03-04T12:15:28.093Z,3.03
2018-03-04T12:20:31.716Z,3.60
2018-03-04T12:25:34.993Z,7.68
2018-03-04T12:30:38.300Z,8.40
2018-03-04T12:35:41.952Z,8.20
2018-03-04T12:40:45.166Z,7.22
2018-03-04T12:45:48.369Z,6.95
2018-03-04T12:50:51.731Z,8.23
2018-03-04T12:55:54.943Z,6.68
2018-03-04T13:00:58.265Z,7.53
2018-03-04T13:06:01.491Z,7.60
2018-03-04T13:11:04.729Z,7.35
2018-03-04T13:16:07.956Z,7.07
2018-03-04T13:21:11.298Z,8.18
2018-03-04T13:26:14.523Z,8.02
2018-03-04T13:31:17.735Z,7.72
2018-03-04T13:36:20.951Z,6.93
2018-03-04T13:41:24.217Z,6.40
2018-03-04T13:46:27.493Z,5.85
2018-03-04T13:51:30.704Z,5.43
2018-03-04T13:56:34.412Z,2.72
2018-03-04T14:01:37.616Z,2.60
2018-03-04T14:06:40.832Z,2.80
2018-03-04T14:11:44.485Z,3.75
2018-03-04T14:16:47.854Z,3.97
2018-03-04T14:21:51.483Z,3.80
2018-03-04T14:26:55.133Z,4.03
2018-03-04T14:31:58.504Z,3.63
2018-03-04T14:37:02.506Z,4.10
2018-03-04T14:42:05.990Z,3.53
2018-03-04T14:47:09.195Z,3.87
2018-03-04T14:52:13.020Z,3.40
2018-03-04T14:57:16.274Z,3.40
2018-03-04T15:02:19.549Z,2.87
2018-03-04T15:07:22.755Z,3.70
2018-03-04T15:12:26.470Z,3.15
2018-03-04T15:17:29.729Z,3.60
2018-03-04T15:22:32.973Z,3.15
2018-03-04T15:27:36.293Z,3.30
2018-03-04T15:32:39.696Z,3.53
2018-03-04T15:37:42.938Z,3.17
2018-03-04T15:42:46.283Z,2.90
2018-03-04T15:47:49.641Z,2.83
2018-03-04T15:52:53.254Z,3.30
2018-03-04T15:57:56.991Z,2.63
2018-03-04T16:03:00.354Z,2.60
2018-03-04T16:08:04.070Z,2.20
2018-03-04T16:13:07.359Z,1.93
2018-03-04T16:18:10.714Z,2.03
2018-03-04T16:23:14.065Z,2.00
2018-03-04T16:28:17.285Z,1.90
2018-03-04T16:33:20.709Z,1.80
2018-03-04T16:38:24.428Z,2.10
2018-03-04T16:43:28.037Z,2.17
2018-03-04T16:48:31.345Z,1.53
2018-03-04T16:53:34.561Z,1.70
2018-03-04T16:58:38.267Z,1.60
2018-03-04T17:03:41.483Z,2.03
2018-03-04T17:08:46.042Z,1.87
2018-03-04T17:13:49.260Z,1.77
2018-03-04T17:18:52.557Z,2.10
2018-03-04T17:23:55.851Z,2.00
2018-03-04T17:28:59.059Z,1.93
2018-03-04T17:34:02.292Z,2.10
2018-03-04T17:39:06.146Z,2.70
2018-03-04T17:44:09.355Z,2.40
2018-03-04T17:49:12.585Z,2.33
2018-03-04T17:54:16.277Z,2.53
2018-03-04T17:59:19.521Z,3.87
2018-03-04T18:04:22.754Z,2.87
2018-03-04T18:09:25.992Z,3.57
2018-03-04T18:14:29.209Z,2.50
2018-03-04T18:19:33.460Z,2.60
2018-03-04T18:24:46.112Z,2.97
2018-03-04T18:29:50.178Z,2.80
2018-03-04T18:34:53.825Z,3.23
2018-03-04T18:39:57.511Z,3.33
2018-03-04T18:45:00.867Z,3.00
2018-03-04T18:50:04.182Z,2.80
2018-03-04T18:55:07.391Z,3.30
2018-03-04T19:00:10.642Z,3.87
2018-03-04T19:05:13.880Z,3.63
2018-03-04T19:10:17.203Z,4.23
2018-03-04T19:15:20.402Z,5.13
2018-03-04T19:20:23.863Z,4.67
2018-03-04T19:25:27.115Z,5.60
2018-03-04T19:30:30.339Z,4.80
2018-03-04T19:35:33.680Z,4.37
2018-03-04T19:40:36.944Z,4.40
2018-03-04T19:45:40.144Z,5.00
2018-03-04T19:50:43.338Z,6.30
2018-03-04T19:55:46.671Z,5.90
2018-03-04T20:00:50.214Z,7.03
2018-03-04T20:05:53.658Z,7.60
2018-03-04T20:10:56.932Z,9.30
2018-03-04T20:16:00.558Z,9.87
2018-03-04T20:21:04.262Z,9.33
2018-03-04T20:26:07.538Z,9.17
2018-03-04T20:31:11.041Z,7.70
2018-03-04T20:36:14.420Z,6.50
2018-03-04T20:41:17.670Z,7.03
2018-03-04T20:46:20.899Z,9.03
2018-03-04T20:51:24.144Z,9.87
2018-03-04T20:56:27.426Z,10.70
2018-03-04T21:01:31.136Z,10.57
2018-03-04T21:06:34.933Z,10.83
2018-03-04T21:11:38.348Z,9.73
2018-03-04T21:16:41.669Z,10.00
2018-03-04T21:21:45.378Z,11.20
2018-03-04T21:26:48.704Z,9.47
2018-03-04T21:31:52.405Z,11.33
2018-03-04T21:36:55.681Z,10.00
2018-03-04T21:41:59.424Z,11.17
2018-03-04T21:47:02.937Z,11.13
2018-03-04T21:52:06.345Z,11.17
2018-03-04T21:57:09.552Z,10.17
2018-03-04T22:02:13.031Z,11.07
2018-03-04T22:07:16.422Z,11.00
2018-03-04T22:12:19.722Z,10.07
2018-03-04T22:17:23.288Z,10.00
2018-03-04T22:22:26.651Z,10.10
2018-03-04T22:27:30.060Z,8.97
2018-03-04T22:32:33.442Z,9.87
2018-03-04T22:37:36.860Z,9.17
2018-03-04T22:42:40.243Z,8.80
2018-03-04T22:47:43.515Z,8.87
2018-03-04T22:52:47.767Z,8.37
2018-03-04T22:57:51.001Z,9.20
2018-03-04T23:02:54.434Z,8.60
2018-03-04T23:07:57.683Z,7.93
2018-03-04T23:13:00.969Z,8.17
2018-03-04T23:18:04.440Z,8.83
2018-03-04T23:23:07.718Z,9.07
2018-03-04T23:28:11.331Z,8.70
2018-03-04T23:33:14.542Z,8.60
2018-03-04T23:38:18.203Z,6.93
2018-03-04T23:43:21.459Z,8.23
2018-03-04T23:48:25.068Z,6.93
2018-03-04T23:53:28.275Z,6.40
2018-03-04T23:58:31.490Z,7.17
